sensor_id;sensor_type;location;lat;lon;timestamp;P1;durP1;ratioP1;P2;durP2;ratioP2
14554;SDS011;7364;50.870;4.722;2023-08-06T00:01:08;2.53;;;1.57;;
14554;SDS011;7364;50.870;4.722;2023-08-06T00:03:36;5.17;;;1.60;;
14554;SDS011;7364;50.870;4.722;2023-08-06T00:06:04;3.10;;;1.60;;
14554;SDS011;7364;50.870;4.722;2023-08-06T00:08:32;2.53;;;1.23;;
14554;SDS011;7364;50.870;4.722;2023-08-06T00:10:59;2.77;;;1.30;;
14554;SDS011;7364;50.870;4.722;2023-08-06T00:13:26;3.57;;;1.30;;
14554;SDS011;7364;50.870;4.722;2023-08-06T00:15:55;2.73;;;1.60;;
14554;SDS011;7364;50.870;4.722;2023-08-06T00:18:34;3.63;;;1.70;;
14554;SDS011;7364;50.870;4.722;2023-08-06T00:21:01;6.93;;;1.33;;
14554;SDS011;7364;50.870;4.722;2023-08-06T00:23:29;4.13;;;1.20;;
14554;SDS011;7364;50.870;4.722;2023-08-06T00:25:56;5.17;;;1.80;;
14554;SDS011;7364;50.870;4.722;2023-08-06T00:28:23;2.63;;;1.23;;
14554;SDS011;7364;50.870;4.722;2023-08-06T00:30:52;3.30;;;1.27;;
14554;SDS011;7364;50.870;4.722;2023-08-06T00:33:21;2.80;;;1.53;;
14554;SDS011;7364;50.870;4.722;2023-08-06T00:35:49;1.73;;;1.13;;
14554;SDS011;7364;50.870;4.722;2023-08-06T00:38:16;4.13;;;1.60;;
14554;SDS011;7364;50.870;4.722;2023-08-06T00:40:44;5.07;;;2.23;;
14554;SDS011;7364;50.870;4.722;2023-08-06T00:43:11;2.60;;;1.40;;
14554;SDS011;7364;50.870;4.722;2023-08-06T00:45:38;1.60;;;1.07;;
14554;SDS011;7364;50.870;4.722;2023-08-06T00:48:06;2.80;;;1.37;;
14554;SDS011;7364;50.870;4.722;2023-08-06T00:50:35;3.07;;;1.50;;
14554;SDS011;7364;50.870;4.722;2023-08-06T00:53:02;2.17;;;1.27;;
14554;SDS011;7364;50.870;4.722;2023-08-06T00:55:37;5.20;;;1.80;;
14554;SDS011;7364;50.870;4.722;2023-08-06T00:58:05;6.67;;;2.03;;
14554;SDS011;7364;50.870;4.722;2023-08-06T01:00:32;2.93;;;1.67;;
14554;SDS011;7364;50.870;4.722;2023-08-06T01:03:00;2.40;;;1.50;;
14554;SDS011;7364;50.870;4.722;2023-08-06T01:05:28;5.33;;;2.10;;
14554;SDS011;7364;50.870;4.722;2023-08-06T01:08:01;4.17;;;1.70;;
14554;SDS011;7364;50.870;4.722;2023-08-06T01:10:48;4.20;;;1.93;;
14554;SDS011;7364;50.870;4.722;2023-08-06T01:13:26;4.03;;;1.87;;
14554;SDS011;7364;50.870;4.722;2023-08-06T01:15:59;3.90;;;2.07;;
14554;SDS011;7364;50.870;4.722;2023-08-06T01:18:28;3.83;;;2.03;;
14554;SDS011;7364;50.870;4.722;2023-08-06T01:20:57;3.10;;;1.90;;
14554;SDS011;7364;50.870;4.722;2023-08-06T01:23:24;3.03;;;1.90;;
14554;SDS011;7364;50.870;4.722;2023-08-06T01:25:53;3.10;;;2.00;;
14554;SDS011;7364;50.870;4.722;2023-08-06T01:28:32;3.07;;;2.00;;
14554;SDS011;7364;50.870;4.722;2023-08-06T01:31:07;4.03;;;2.33;;
14554;SDS011;7364;50.870;4.722;2023-08-06T01:33:37;4.70;;;2.17;;
14554;SDS011;7364;50.870;4.722;2023-08-06T01:36:11;4.73;;;2.17;;
14554;SDS011;7364;50.870;4.722;2023-08-06T01:38:40;3.97;;;2.60;;
14554;SDS011;7364;50.870;4.722;2023-08-06T01:41:07;4.33;;;1.93;;
14554;SDS011;7364;50.870;4.722;2023-08-06T01:43:35;4.20;;;2.40;;
14554;SDS011;7364;50.870;4.722;2023-08-06T01:46:02;4.40;;;2.27;;
14554;SDS011;7364;50.870;4.722;2023-08-06T01:48:30;3.53;;;2.63;;
14554;SDS011;7364;50.870;4.722;2023-08-06T01:50:57;5.00;;;2.77;;
14554;SDS011;7364;50.870;4.722;2023-08-06T01:53:26;5.97;;;2.97;;
14554;SDS011;7364;50.870;4.722;2023-08-06T01:55:53;4.80;;;2.80;;
14554;SDS011;7364;50.870;4.722;2023-08-06T01:58:20;6.73;;;3.50;;
14554;SDS011;7364;50.870;4.722;2023-08-06T02:00:48;5.43;;;2.67;;
14554;SDS011;7364;50.870;4.722;2023-08-06T02:03:15;3.97;;;2.70;;
14554;SDS011;7364;50.870;4.722;2023-08-06T02:05:42;5.77;;;3.50;;
14554;SDS011;7364;50.870;4.722;2023-08-06T02:08:11;6.47;;;3.63;;
14554;SDS011;7364;50.870;4.722;2023-08-06T02:10:40;5.77;;;3.67;;
14554;SDS011;7364;50.870;4.722;2023-08-06T02:13:08;3.93;;;2.97;;
14554;SDS011;7364;50.870;4.722;2023-08-06T02:15:35;6.17;;;3.67;;
14554;SDS011;7364;50.870;4.722;2023-08-06T02:18:02;4.27;;;3.40;;
14554;SDS011;7364;50.870;4.722;2023-08-06T02:20:30;5.40;;;3.77;;
14554;SDS011;7364;50.870;4.722;2023-08-06T02:22:57;8.93;;;4.40;;
14554;SDS011;7364;50.870;4.722;2023-08-06T02:25:25;7.27;;;4.30;;
14554;SDS011;7364;50.870;4.722;2023-08-06T02:27:53;6.30;;;4.10;;
14554;SDS011;7364;50.870;4.722;2023-08-06T02:30:21;7.33;;;4.30;;
14554;SDS011;7364;50.870;4.722;2023-08-06T02:32:48;7.53;;;4.23;;
14554;SDS011;7364;50.870;4.722;2023-08-06T02:35:16;7.17;;;4.33;;
14554;SDS011;7364;50.870;4.722;2023-08-06T02:37:43;5.50;;;3.87;;
14554;SDS011;7364;50.870;4.722;2023-08-06T02:40:11;4.97;;;4.20;;
14554;SDS011;7364;50.870;4.722;2023-08-06T02:42:38;7.30;;;4.23;;
14554;SDS011;7364;50.870;4.722;2023-08-06T02:45:07;5.77;;;4.10;;
14554;SDS011;7364;50.870;4.722;2023-08-06T02:47:35;4.90;;;4.00;;
14554;SDS011;7364;50.870;4.722;2023-08-06T02:50:03;6.47;;;4.20;;
14554;SDS011;7364;50.870;4.722;2023-08-06T02:52:30;6.53;;;3.83;;
14554;SDS011;7364;50.870;4.722;2023-08-06T02:54:58;7.33;;;4.10;;
14554;SDS011;7364;50.870;4.722;2023-08-06T02:57:26;5.97;;;3.37;;
14554;SDS011;7364;50.870;4.722;2023-08-06T02:59:55;7.13;;;4.17;;
14554;SDS011;7364;50.870;4.722;2023-08-06T03:02:24;5.03;;;3.83;;
14554;SDS011;7364;50.870;4.722;2023-08-06T03:04:52;5.23;;;3.80;;
14554;SDS011;7364;50.870;4.722;2023-08-06T03:07:19;6.27;;;3.57;;
14554;SDS011;7364;50.870;4.722;2023-08-06T03:09:50;5.77;;;3.60;;
14554;SDS011;7364;50.870;4.722;2023-08-06T03:12:18;6.27;;;3.47;;
14554;SDS011;7364;50.870;4.722;2023-08-06T03:14:45;4.63;;;3.43;;
14554;SDS011;7364;50.870;4.722;2023-08-06T03:17:13;6.13;;;3.60;;
14554;SDS011;7364;50.870;4.722;2023-08-06T03:19:42;9.77;;;3.50;;
14554;SDS011;7364;50.870;4.722;2023-08-06T03:22:09;5.17;;;3.50;;
14554;SDS011;7364;50.870;4.722;2023-08-06T03:24:36;9.03;;;3.57;;
14554;SDS011;7364;50.870;4.722;2023-08-06T03:27:04;8.40;;;3.87;;
14554;SDS011;7364;50.870;4.722;2023-08-06T03:29:32;7.10;;;3.73;;
14554;SDS011;7364;50.870;4.722;2023-08-06T03:31:59;6.87;;;4.07;;
14554;SDS011;7364;50.870;4.722;2023-08-06T03:34:26;8.67;;;3.57;;
14554;SDS011;7364;50.870;4.722;2023-08-06T03:36:55;8.90;;;3.13;;
14554;SDS011;7364;50.870;4.722;2023-08-06T03:39:23;8.27;;;3.90;;
14554;SDS011;7364;50.870;4.722;2023-08-06T03:41:51;6.27;;;4.00;;
14554;SDS011;7364;50.870;4.722;2023-08-06T03:44:18;5.07;;;3.47;;
14554;SDS011;7364;50.870;4.722;2023-08-06T03:46:45;8.50;;;4.47;;
14554;SDS011;7364;50.870;4.722;2023-08-06T03:49:13;8.03;;;4.17;;
14554;SDS011;7364;50.870;4.722;2023-08-06T03:51:40;12.07;;;5.10;;
14554;SDS011;7364;50.870;4.722;2023-08-06T03:54:09;7.57;;;5.43;;
14554;SDS011;7364;50.870;4.722;2023-08-06T03:56:36;11.60;;;5.97;;
14554;SDS011;7364;50.870;4.722;2023-08-06T03:59:04;9.70;;;7.00;;
14554;SDS011;7364;50.870;4.722;2023-08-06T04:01:31;11.70;;;7.67;;
14554;SDS011;7364;50.870;4.722;2023-08-06T04:03:59;10.27;;;7.80;;
14554;SDS011;7364;50.870;4.722;2023-08-06T04:06:26;12.13;;;8.77;;
14554;SDS011;7364;50.870;4.722;2023-08-06T04:08:53;11.00;;;8.27;;
14554;SDS011;7364;50.870;4.722;2023-08-06T04:11:22;12.27;;;8.43;;
14554;SDS011;7364;50.870;4.722;2023-08-06T04:13:49;14.77;;;9.73;;
14554;SDS011;7364;50.870;4.722;2023-08-06T04:16:16;14.07;;;9.00;;
14554;SDS011;7364;50.870;4.722;2023-08-06T04:18:44;14.10;;;8.73;;
14554;SDS011;7364;50.870;4.722;2023-08-06T04:21:11;14.17;;;9.37;;
14554;SDS011;7364;50.870;4.722;2023-08-06T04:23:39;13.33;;;9.20;;
14554;SDS011;7364;50.870;4.722;2023-08-06T04:26:06;11.20;;;8.83;;
14554;SDS011;7364;50.870;4.722;2023-08-06T04:28:35;14.00;;;11.73;;
14554;SDS011;7364;50.870;4.722;2023-08-06T04:31:02;12.20;;;10.90;;
14554;SDS011;7364;50.870;4.722;2023-08-06T04:33:29;14.33;;;11.40;;
14554;SDS011;7364;50.870;4.722;2023-08-06T04:35:57;13.07;;;11.37;;
14554;SDS011;7364;50.870;4.722;2023-08-06T04:38:24;11.77;;;8.67;;
14554;SDS011;7364;50.870;4.722;2023-08-06T04:40:51;8.60;;;7.37;;
14554;SDS011;7364;50.870;4.722;2023-08-06T04:43:19;11.97;;;7.63;;
14554;SDS011;7364;50.870;4.722;2023-08-06T04:45:48;7.10;;;6.00;;
14554;SDS011;7364;50.870;4.722;2023-08-06T04:48:16;7.53;;;3.10;;
14554;SDS011;7364;50.870;4.722;2023-08-06T04:50:43;5.50;;;2.80;;
14554;SDS011;7364;50.870;4.722;2023-08-06T04:53:11;3.43;;;2.07;;
14554;SDS011;7364;50.870;4.722;2023-08-06T04:55:38;2.00;;;1.47;;
14554;SDS011;7364;50.870;4.722;2023-08-06T04:58:06;3.57;;;1.60;;
14554;SDS011;7364;50.870;4.722;2023-08-06T05:00:36;3.40;;;1.37;;
14554;SDS011;7364;50.870;4.722;2023-08-06T05:03:05;2.90;;;1.30;;
14554;SDS011;7364;50.870;4.722;2023-08-06T05:05:32;0.97;;;0.73;;
14554;SDS011;7364;50.870;4.722;2023-08-06T05:07:59;1.93;;;1.20;;
14554;SDS011;7364;50.870;4.722;2023-08-06T05:10:27;3.13;;;1.73;;
14554;SDS011;7364;50.870;4.722;2023-08-06T05:12:54;3.13;;;2.60;;
14554;SDS011;7364;50.870;4.722;2023-08-06T05:15:22;3.47;;;2.50;;
14554;SDS011;7364;50.870;4.722;2023-08-06T05:17:50;4.70;;;3.43;;
14554;SDS011;7364;50.870;4.722;2023-08-06T05:20:19;4.83;;;4.13;;
14554;SDS011;7364;50.870;4.722;2023-08-06T05:22:47;7.50;;;5.80;;
14554;SDS011;7364;50.870;4.722;2023-08-06T05:25:14;9.83;;;5.83;;
14554;SDS011;7364;50.870;4.722;2023-08-06T05:27:41;8.43;;;6.00;;
14554;SDS011;7364;50.870;4.722;2023-08-06T05:30:09;13.23;;;6.73;;
14554;SDS011;7364;50.870;4.722;2023-08-06T05:32:37;7.37;;;5.77;;
14554;SDS011;7364;50.870;4.722;2023-08-06T05:35:04;8.97;;;5.80;;
14554;SDS011;7364;50.870;4.722;2023-08-06T05:37:34;8.67;;;6.13;;
14554;SDS011;7364;50.870;4.722;2023-08-06T05:40:01;11.40;;;6.03;;
14554;SDS011;7364;50.870;4.722;2023-08-06T05:42:29;7.77;;;5.20;;
14554;SDS011;7364;50.870;4.722;2023-08-06T05:44:56;6.80;;;4.23;;
14554;SDS011;7364;50.870;4.722;2023-08-06T05:47:24;10.30;;;5.43;;
14554;SDS011;7364;50.870;4.722;2023-08-06T05:49:51;4.70;;;4.03;;
14554;SDS011;7364;50.870;4.722;2023-08-06T05:52:18;6.83;;;4.13;;
14554;SDS011;7364;50.870;4.722;2023-08-06T05:54:47;10.53;;;4.70;;
14554;SDS011;7364;50.870;4.722;2023-08-06T05:57:15;7.83;;;3.60;;
14554;SDS011;7364;50.870;4.722;2023-08-06T05:59:42;5.93;;;3.03;;
14554;SDS011;7364;50.870;4.722;2023-08-06T06:02:09;9.00;;;3.50;;
14554;SDS011;7364;50.870;4.722;2023-08-06T06:04:37;4.97;;;3.10;;
14554;SDS011;7364;50.870;4.722;2023-08-06T06:07:04;5.60;;;3.77;;
14554;SDS011;7364;50.870;4.722;2023-08-06T06:09:31;5.90;;;3.27;;
14554;SDS011;7364;50.870;4.722;2023-08-06T06:12:00;6.50;;;3.67;;
14554;SDS011;7364;50.870;4.722;2023-08-06T06:14:28;6.23;;;3.47;;
14554;SDS011;7364;50.870;4.722;2023-08-06T06:16:55;6.43;;;2.57;;
14554;SDS011;7364;50.870;4.722;2023-08-06T06:19:22;6.33;;;3.50;;
14554;SDS011;7364;50.870;4.722;2023-08-06T06:21:49;9.00;;;4.13;;
14554;SDS011;7364;50.870;4.722;2023-08-06T06:24:17;6.93;;;3.47;;
14554;SDS011;7364;50.870;4.722;2023-08-06T06:26:44;7.80;;;3.63;;
14554;SDS011;7364;50.870;4.722;2023-08-06T06:29:13;6.73;;;3.83;;
14554;SDS011;7364;50.870;4.722;2023-08-06T06:31:40;6.90;;;3.40;;
14554;SDS011;7364;50.870;4.722;2023-08-06T06:34:07;8.00;;;3.70;;
14554;SDS011;7364;50.870;4.722;2023-08-06T06:36:35;8.30;;;4.13;;
14554;SDS011;7364;50.870;4.722;2023-08-06T06:39:02;7.73;;;3.53;;
14554;SDS011;7364;50.870;4.722;2023-08-06T06:41:29;9.63;;;3.87;;
14554;SDS011;7364;50.870;4.722;2023-08-06T06:43:58;10.90;;;4.07;;
14554;SDS011;7364;50.870;4.722;2023-08-06T06:46:26;7.67;;;3.60;;
14554;SDS011;7364;50.870;4.722;2023-08-06T06:48:54;12.10;;;4.13;;
14554;SDS011;7364;50.870;4.722;2023-08-06T06:51:21;6.77;;;4.30;;
14554;SDS011;7364;50.870;4.722;2023-08-06T06:53:48;12.80;;;3.93;;
14554;SDS011;7364;50.870;4.722;2023-08-06T06:56:15;6.23;;;3.57;;
14554;SDS011;7364;50.870;4.722;2023-08-06T06:58:43;8.83;;;4.07;;
14554;SDS011;7364;50.870;4.722;2023-08-06T07:01:10;6.60;;;3.63;;
14554;SDS011;7364;50.870;4.722;2023-08-06T07:03:39;5.47;;;3.13;;
14554;SDS011;7364;50.870;4.722;2023-08-06T07:06:06;7.23;;;4.27;;
14554;SDS011;7364;50.870;4.722;2023-08-06T07:08:34;7.57;;;3.60;;
14554;SDS011;7364;50.870;4.722;2023-08-06T07:11:01;10.77;;;3.97;;
14554;SDS011;7364;50.870;4.722;2023-08-06T07:13:30;7.50;;;4.53;;
14554;SDS011;7364;50.870;4.722;2023-08-06T07:15:57;8.00;;;4.63;;
14554;SDS011;7364;50.870;4.722;2023-08-06T07:18:25;8.33;;;3.97;;
14554;SDS011;7364;50.870;4.722;2023-08-06T07:20:54;7.33;;;3.80;;
14554;SDS011;7364;50.870;4.722;2023-08-06T07:23:22;12.67;;;4.20;;
14554;SDS011;7364;50.870;4.722;2023-08-06T07:25:51;5.73;;;4.07;;
14554;SDS011;7364;50.870;4.722;2023-08-06T07:28:18;7.53;;;4.97;;
14554;SDS011;7364;50.870;4.722;2023-08-06T07:30:45;12.67;;;4.60;;
14554;SDS011;7364;50.870;4.722;2023-08-06T07:33:13;9.43;;;4.73;;
14554;SDS011;7364;50.870;4.722;2023-08-06T07:35:40;11.43;;;4.00;;
14554;SDS011;7364;50.870;4.722;2023-08-06T07:38:09;8.37;;;4.00;;
14554;SDS011;7364;50.870;4.722;2023-08-06T07:40:37;7.53;;;4.23;;
14554;SDS011;7364;50.870;4.722;2023-08-06T07:43:05;5.03;;;3.27;;
14554;SDS011;7364;50.870;4.722;2023-08-06T07:45:33;6.60;;;3.43;;
14554;SDS011;7364;50.870;4.722;2023-08-06T07:48:01;7.57;;;3.77;;
14554;SDS011;7364;50.870;4.722;2023-08-06T07:50:28;7.43;;;3.60;;
14554;SDS011;7364;50.870;4.722;2023-08-06T07:52:56;9.10;;;3.70;;
14554;SDS011;7364;50.870;4.722;2023-08-06T07:55:25;12.93;;;3.73;;
14554;SDS011;7364;50.870;4.722;2023-08-06T07:57:53;8.50;;;2.83;;
14554;SDS011;7364;50.870;4.722;2023-08-06T08:00:20;7.23;;;2.17;;
14554;SDS011;7364;50.870;4.722;2023-08-06T08:02:48;7.33;;;2.60;;
14554;SDS011;7364;50.870;4.722;2023-08-06T08:05:15;5.43;;;1.77;;
14554;SDS011;7364;50.870;4.722;2023-08-06T08:07:42;6.07;;;2.40;;
14554;SDS011;7364;50.870;4.722;2023-08-06T08:10:10;9.50;;;2.67;;
14554;SDS011;7364;50.870;4.722;2023-08-06T08:12:39;6.37;;;2.20;;
14554;SDS011;7364;50.870;4.722;2023-08-06T08:15:06;7.37;;;2.13;;
14554;SDS011;7364;50.870;4.722;2023-08-06T08:17:34;15.37;;;2.43;;
14554;SDS011;7364;50.870;4.722;2023-08-06T08:20:01;6.23;;;2.33;;
14554;SDS011;7364;50.870;4.722;2023-08-06T08:22:29;8.10;;;2.20;;
14554;SDS011;7364;50.870;4.722;2023-08-06T08:24:57;7.33;;;2.30;;
14554;SDS011;7364;50.870;4.722;2023-08-06T08:27:24;13.23;;;3.03;;
14554;SDS011;7364;50.870;4.722;2023-08-06T08:29:53;8.90;;;3.30;;
14554;SDS011;7364;50.870;4.722;2023-08-06T08:32:20;7.37;;;2.50;;
14554;SDS011;7364;50.870;4.722;2023-08-06T08:34:47;7.87;;;2.57;;
14554;SDS011;7364;50.870;4.722;2023-08-06T08:37:15;6.77;;;2.67;;
14554;SDS011;7364;50.870;4.722;2023-08-06T08:39:42;11.63;;;2.23;;
14554;SDS011;7364;50.870;4.722;2023-08-06T08:42:10;7.03;;;3.20;;
14554;SDS011;7364;50.870;4.722;2023-08-06T08:44:37;6.90;;;2.13;;
14554;SDS011;7364;50.870;4.722;2023-08-06T08:47:07;10.47;;;2.90;;
14554;SDS011;7364;50.870;4.722;2023-08-06T08:49:36;7.83;;;2.77;;
14554;SDS011;7364;50.870;4.722;2023-08-06T08:52:04;4.67;;;2.17;;
14554;SDS011;7364;50.870;4.722;2023-08-06T08:54:33;4.43;;;2.00;;
14554;SDS011;7364;50.870;4.722;2023-08-06T08:57:01;11.23;;;2.80;;
14554;SDS011;7364;50.870;4.722;2023-08-06T08:59:28;5.83;;;2.17;;
14554;SDS011;7364;50.870;4.722;2023-08-06T09:01:56;10.73;;;2.00;;
14554;SDS011;7364;50.870;4.722;2023-08-06T09:04:26;4.73;;;2.27;;
14554;SDS011;7364;50.870;4.722;2023-08-06T09:07:00;7.23;;;2.20;;
14554;SDS011;7364;50.870;4.722;2023-08-06T09:09:28;2.43;;;1.77;;
14554;SDS011;7364;50.870;4.722;2023-08-06T09:11:59;10.47;;;2.30;;
14554;SDS011;7364;50.870;4.722;2023-08-06T09:14:28;5.63;;;2.10;;
14554;SDS011;7364;50.870;4.722;2023-08-06T09:16:56;4.83;;;2.50;;
14554;SDS011;7364;50.870;4.722;2023-08-06T09:19:23;5.30;;;2.07;;
14554;SDS011;7364;50.870;4.722;2023-08-06T09:21:53;9.07;;;2.37;;
14554;SDS011;7364;50.870;4.722;2023-08-06T09:24:22;7.83;;;2.37;;
14554;SDS011;7364;50.870;4.722;2023-08-06T09:26:51;7.70;;;2.43;;
14554;SDS011;7364;50.870;4.722;2023-08-06T09:29:19;7.70;;;2.43;;
14554;SDS011;7364;50.870;4.722;2023-08-06T09:31:47;5.80;;;1.73;;
14554;SDS011;7364;50.870;4.722;2023-08-06T09:34:17;7.27;;;1.77;;
14554;SDS011;7364;50.870;4.722;2023-08-06T09:36:47;6.00;;;2.13;;
14554;SDS011;7364;50.870;4.722;2023-08-06T09:39:16;5.97;;;2.57;;
14554;SDS011;7364;50.870;4.722;2023-08-06T09:41:44;7.37;;;2.37;;
14554;SDS011;7364;50.870;4.722;2023-08-06T09:44:16;11.23;;;2.23;;
14554;SDS011;7364;50.870;4.722;2023-08-06T09:46:47;4.53;;;2.00;;
14554;SDS011;7364;50.870;4.722;2023-08-06T09:49:16;7.13;;;2.00;;
14554;SDS011;7364;50.870;4.722;2023-08-06T09:51:44;8.07;;;2.03;;
14554;SDS011;7364;50.870;4.722;2023-08-06T09:54:13;3.40;;;1.83;;
14554;SDS011;7364;50.870;4.722;2023-08-06T09:56:42;3.13;;;1.83;;
14554;SDS011;7364;50.870;4.722;2023-08-06T09:59:09;6.57;;;2.20;;
14554;SDS011;7364;50.870;4.722;2023-08-06T10:01:37;9.70;;;2.30;;
14554;SDS011;7364;50.870;4.722;2023-08-06T10:04:05;3.87;;;1.73;;
14554;SDS011;7364;50.870;4.722;2023-08-06T10:06:34;6.47;;;2.20;;
14554;SDS011;7364;50.870;4.722;2023-08-06T10:09:02;4.57;;;2.17;;
14554;SDS011;7364;50.870;4.722;2023-08-06T10:11:31;3.83;;;1.47;;
14554;SDS011;7364;50.870;4.722;2023-08-06T10:13:59;9.37;;;2.27;;
14554;SDS011;7364;50.870;4.722;2023-08-06T10:16:31;6.90;;;2.10;;
14554;SDS011;7364;50.870;4.722;2023-08-06T10:19:00;2.80;;;1.83;;
14554;SDS011;7364;50.870;4.722;2023-08-06T10:21:30;7.93;;;2.63;;
14554;SDS011;7364;50.870;4.722;2023-08-06T10:23:58;4.33;;;1.80;;
14554;SDS011;7364;50.870;4.722;2023-08-06T10:26:26;6.33;;;2.47;;
14554;SDS011;7364;50.870;4.722;2023-08-06T10:28:55;4.33;;;2.03;;
14554;SDS011;7364;50.870;4.722;2023-08-06T10:34:21;3.10;;;1.77;;
14554;SDS011;7364;50.870;4.722;2023-08-06T10:36:49;8.10;;;2.43;;
14554;SDS011;7364;50.870;4.722;2023-08-06T10:39:16;8.00;;;2.47;;
14554;SDS011;7364;50.870;4.722;2023-08-06T10:41:43;4.97;;;1.97;;
14554;SDS011;7364;50.870;4.722;2023-08-06T10:44:12;4.63;;;2.30;;
14554;SDS011;7364;50.870;4.722;2023-08-06T10:46:40;7.67;;;2.83;;
14554;SDS011;7364;50.870;4.722;2023-08-06T10:49:08;3.63;;;2.17;;
14554;SDS011;7364;50.870;4.722;2023-08-06T10:51:36;6.63;;;2.70;;
14554;SDS011;7364;50.870;4.722;2023-08-06T10:54:04;13.50;;;2.67;;
14554;SDS011;7364;50.870;4.722;2023-08-06T10:56:31;6.90;;;2.80;;
14554;SDS011;7364;50.870;4.722;2023-08-06T10:59:07;6.23;;;2.47;;
14554;SDS011;7364;50.870;4.722;2023-08-06T11:01:37;5.60;;;3.00;;
14554;SDS011;7364;50.870;4.722;2023-08-06T11:04:05;8.57;;;2.27;;
14554;SDS011;7364;50.870;4.722;2023-08-06T11:06:32;4.93;;;2.43;;
14554;SDS011;7364;50.870;4.722;2023-08-06T11:09:01;12.00;;;3.00;;
14554;SDS011;7364;50.870;4.722;2023-08-06T11:11:28;4.33;;;2.50;;
14554;SDS011;7364;50.870;4.722;2023-08-06T11:13:55;6.33;;;2.53;;
14554;SDS011;7364;50.870;4.722;2023-08-06T11:16:23;5.00;;;3.07;;
14554;SDS011;7364;50.870;4.722;2023-08-06T11:18:52;7.47;;;2.30;;
14554;SDS011;7364;50.870;4.722;2023-08-06T11:21:21;5.37;;;2.33;;
14554;SDS011;7364;50.870;4.722;2023-08-06T11:23:50;10.33;;;2.70;;
14554;SDS011;7364;50.870;4.722;2023-08-06T11:26:18;6.80;;;2.40;;
14554;SDS011;7364;50.870;4.722;2023-08-06T11:28:46;6.60;;;2.27;;
14554;SDS011;7364;50.870;4.722;2023-08-06T11:31:18;6.13;;;2.70;;
14554;SDS011;7364;50.870;4.722;2023-08-06T11:33:46;6.70;;;2.50;;
14554;SDS011;7364;50.870;4.722;2023-08-06T11:36:15;6.13;;;2.63;;
14554;SDS011;7364;50.870;4.722;2023-08-06T11:38:42;9.23;;;2.47;;
14554;SDS011;7364;50.870;4.722;2023-08-06T11:41:12;11.10;;;2.60;;
14554;SDS011;7364;50.870;4.722;2023-08-06T11:43:39;5.17;;;2.37;;
14554;SDS011;7364;50.870;4.722;2023-08-06T11:46:07;6.40;;;2.43;;
14554;SDS011;7364;50.870;4.722;2023-08-06T11:48:50;6.47;;;2.33;;
14554;SDS011;7364;50.870;4.722;2023-08-06T11:51:21;4.83;;;2.00;;
14554;SDS011;7364;50.870;4.722;2023-08-06T11:53:51;7.20;;;2.47;;
14554;SDS011;7364;50.870;4.722;2023-08-06T11:56:21;5.03;;;2.03;;
14554;SDS011;7364;50.870;4.722;2023-08-06T11:58:48;3.77;;;1.97;;
14554;SDS011;7364;50.870;4.722;2023-08-06T12:01:16;6.80;;;1.60;;
14554;SDS011;7364;50.870;4.722;2023-08-06T12:03:44;7.57;;;2.53;;
14554;SDS011;7364;50.870;4.722;2023-08-06T12:06:11;6.63;;;2.40;;
14554;SDS011;7364;50.870;4.722;2023-08-06T12:08:40;3.97;;;1.77;;
14554;SDS011;7364;50.870;4.722;2023-08-06T12:11:07;9.77;;;2.63;;
14554;SDS011;7364;50.870;4.722;2023-08-06T12:13:35;6.27;;;2.30;;
14554;SDS011;7364;50.870;4.722;2023-08-06T12:16:02;4.43;;;1.80;;
14554;SDS011;7364;50.870;4.722;2023-08-06T12:18:30;4.77;;;2.20;;
14554;SDS011;7364;50.870;4.722;2023-08-06T12:20:57;7.03;;;1.90;;
14554;SDS011;7364;50.870;4.722;2023-08-06T12:23:24;3.23;;;1.90;;
14554;SDS011;7364;50.870;4.722;2023-08-06T12:25:53;6.37;;;1.30;;
14554;SDS011;7364;50.870;4.722;2023-08-06T12:28:20;4.30;;;1.73;;
14554;SDS011;7364;50.870;4.722;2023-08-06T12:30:48;14.83;;;2.20;;
14554;SDS011;7364;50.870;4.722;2023-08-06T12:33:15;7.73;;;2.20;;
14554;SDS011;7364;50.870;4.722;2023-08-06T12:35:43;5.80;;;2.10;;
14554;SDS011;7364;50.870;4.722;2023-08-06T12:38:10;5.33;;;2.40;;
14554;SDS011;7364;50.870;4.722;2023-08-06T12:40:38;4.37;;;2.07;;
14554;SDS011;7364;50.870;4.722;2023-08-06T12:43:08;4.10;;;1.87;;
14554;SDS011;7364;50.870;4.722;2023-08-06T12:45:35;3.67;;;1.83;;
14554;SDS011;7364;50.870;4.722;2023-08-06T12:48:03;8.07;;;1.73;;
14554;SDS011;7364;50.870;4.722;2023-08-06T12:50:30;6.70;;;1.70;;
14554;SDS011;7364;50.870;4.722;2023-08-06T12:52:58;2.57;;;1.50;;
14554;SDS011;7364;50.870;4.722;2023-08-06T12:55:25;3.70;;;2.40;;
14554;SDS011;7364;50.870;4.722;2023-08-06T12:57:53;2.57;;;1.70;;
14554;SDS011;7364;50.870;4.722;2023-08-06T13:00:21;6.13;;;2.03;;
14554;SDS011;7364;50.870;4.722;2023-08-06T13:02:49;4.20;;;1.83;;
14554;SDS011;7364;50.870;4.722;2023-08-06T13:05:16;4.60;;;1.70;;
14554;SDS011;7364;50.870;4.722;2023-08-06T13:07:43;10.53;;;2.43;;
14554;SDS011;7364;50.870;4.722;2023-08-06T13:10:10;6.47;;;1.60;;
14554;SDS011;7364;50.870;4.722;2023-08-06T13:12:38;5.67;;;1.67;;
14554;SDS011;7364;50.870;4.722;2023-08-06T13:15:05;8.07;;;2.47;;
14554;SDS011;7364;50.870;4.722;2023-08-06T13:17:36;5.90;;;2.03;;
14554;SDS011;7364;50.870;4.722;2023-08-06T13:20:04;7.20;;;2.67;;
14554;SDS011;7364;50.870;4.722;2023-08-06T13:22:32;5.87;;;2.70;;
14554;SDS011;7364;50.870;4.722;2023-08-06T13:25:00;7.00;;;2.50;;
14554;SDS011;7364;50.870;4.722;2023-08-06T13:27:27;4.30;;;2.43;;
14554;SDS011;7364;50.870;4.722;2023-08-06T13:29:55;6.33;;;2.47;;
14554;SDS011;7364;50.870;4.722;2023-08-06T13:32:22;7.03;;;2.63;;
14554;SDS011;7364;50.870;4.722;2023-08-06T13:34:51;5.40;;;2.03;;
14554;SDS011;7364;50.870;4.722;2023-08-06T13:37:19;10.30;;;2.23;;
14554;SDS011;7364;50.870;4.722;2023-08-06T13:39:47;5.53;;;2.27;;
14554;SDS011;7364;50.870;4.722;2023-08-06T13:42:14;13.47;;;2.70;;
14554;SDS011;7364;50.870;4.722;2023-08-06T13:44:41;3.43;;;1.67;;
14554;SDS011;7364;50.870;4.722;2023-08-06T13:47:09;6.63;;;2.37;;
14554;SDS011;7364;50.870;4.722;2023-08-06T13:49:36;4.63;;;1.50;;
14554;SDS011;7364;50.870;4.722;2023-08-06T13:52:05;11.20;;;2.10;;
14554;SDS011;7364;50.870;4.722;2023-08-06T13:54:32;3.77;;;1.63;;
14554;SDS011;7364;50.870;4.722;2023-08-06T13:56:59;3.70;;;1.83;;
14554;SDS011;7364;50.870;4.722;2023-08-06T13:59:27;4.67;;;0.93;;
14554;SDS011;7364;50.870;4.722;2023-08-06T14:01:54;5.53;;;1.70;;
14554;SDS011;7364;50.870;4.722;2023-08-06T14:04:24;4.63;;;1.47;;
14554;SDS011;7364;50.870;4.722;2023-08-06T14:06:52;6.37;;;1.90;;
14554;SDS011;7364;50.870;4.722;2023-08-06T14:09:21;6.90;;;2.10;;
14554;SDS011;7364;50.870;4.722;2023-08-06T14:11:51;2.53;;;1.40;;
14554;SDS011;7364;50.870;4.722;2023-08-06T14:14:18;7.87;;;1.97;;
14554;SDS011;7364;50.870;4.722;2023-08-06T14:16:51;15.60;;;2.83;;
14554;SDS011;7364;50.870;4.722;2023-08-06T14:19:19;4.70;;;1.83;;
14554;SDS011;7364;50.870;4.722;2023-08-06T14:21:46;4.33;;;2.00;;
14554;SDS011;7364;50.870;4.722;2023-08-06T14:24:14;5.47;;;1.73;;
14554;SDS011;7364;50.870;4.722;2023-08-06T14:26:42;6.23;;;2.17;;
14554;SDS011;7364;50.870;4.722;2023-08-06T14:29:10;6.53;;;2.20;;
14554;SDS011;7364;50.870;4.722;2023-08-06T14:31:38;10.70;;;2.87;;
14554;SDS011;7364;50.870;4.722;2023-08-06T14:34:06;6.90;;;2.67;;
14554;SDS011;7364;50.870;4.722;2023-08-06T14:36:33;9.77;;;2.40;;
14554;SDS011;7364;50.870;4.722;2023-08-06T14:39:00;12.23;;;2.70;;
14554;SDS011;7364;50.870;4.722;2023-08-06T14:41:28;5.23;;;2.23;;
14554;SDS011;7364;50.870;4.722;2023-08-06T14:43:56;9.93;;;2.20;;
14554;SDS011;7364;50.870;4.722;2023-08-06T14:46:24;10.73;;;2.33;;
14554;SDS011;7364;50.870;4.722;2023-08-06T14:48:52;13.10;;;2.77;;
14554;SDS011;7364;50.870;4.722;2023-08-06T14:51:19;20.13;;;3.27;;
14554;SDS011;7364;50.870;4.722;2023-08-06T14:53:46;7.83;;;3.20;;
14554;SDS011;7364;50.870;4.722;2023-08-06T14:56:14;12.03;;;2.97;;
14554;SDS011;7364;50.870;4.722;2023-08-06T14:58:41;7.43;;;2.70;;
14554;SDS011;7364;50.870;4.722;2023-08-06T15:01:10;8.33;;;3.10;;
14554;SDS011;7364;50.870;4.722;2023-08-06T15:03:37;6.43;;;3.03;;
14554;SDS011;7364;50.870;4.722;2023-08-06T15:06:05;10.23;;;3.40;;
14554;SDS011;7364;50.870;4.722;2023-08-06T15:08:33;11.70;;;3.50;;